Guthrie, Oklahoma
Current Conditions -  °F | °C
As of 9:45 PM on Saturday 22 Nov 2014 (Local Time) from KGOK Reporting Station
Overcast Overcast  
Wind Chill: 56°   Ceiling: 1200
Heat Index: 56°   Visibility: 10mi
Dew Point: 53°   Wind: 10mph
Humidity: 90%   Direction: 160°SSE
Pressure: 29.7"   Gusts: NA
Location:  35.88°N, 97.42°W
Report Text: KGOK 230345Z AUTO 16009KT 10SM BKN012 OVC029 13/12 A2970 RMK AO2 T01330117
Loading
Personal Weather Stations






























Interactive Weather Map New forecast layout! Learn more

10-Day Weather Forecast

Advertisements
Track Severe Weather on mobile